Time;durP1;ratioP1;P1;durP2;ratioP2;P2;SDS_P1;SDS_P2;PMS_P1;PMS_P2;Temp;Humidity;BMP_temperature;BMP_pressure;BME280_temperature;BME280_humidity;BME280_pressure;Samples;Min_cycle;Max_cycle;Signal;HPM_P1;HPM_P2
2022/01/02 00:00:19;;;;;;;3.63;2.70;;;9.20;99.90;;;;;;5093325;28;20200;-44
2022/01/02 00:03:02;;;;;;;3.80;2.63;;;9.20;99.90;;;;;;5093499;28;20187;-42
2022/01/02 00:05:30;;;;;;;6.83;3.00;;;9.20;99.90;;;;;;5093341;28;20155;-43
2022/01/02 00:08:02;;;;;;;4.47;2.67;;;9.20;99.90;;;;;;5093415;28;20211;-41
2022/01/02 00:10:33;;;;;;;3.13;2.53;;;9.20;99.90;;;;;;5093569;28;20266;-42
2022/01/02 00:13:00;;;;;;;3.67;2.20;;;9.20;99.90;;;;;;5059074;28;20233;-44
2022/01/02 00:15:27;;;;;;;4.13;2.27;;;9.30;99.90;;;;;;5093249;28;20639;-41
2022/01/02 00:17:55;;;;;;;3.57;2.07;;;9.30;99.90;;;;;;5075127;28;20630;-41
2022/01/02 00:20:32;;;;;;;3.53;2.00;;;9.40;99.90;;;;;;5093400;28;20293;-44
2022/01/02 00:23:05;;;;;;;2.10;1.73;;;9.50;99.90;;;;;;5093384;28;20187;-44
2022/01/02 00:25:35;;;;;;;5.53;2.30;;;9.50;99.90;;;;;;5075130;28;20182;-42
2022/01/02 00:28:00;;;;;;;3.73;2.20;;;9.60;99.90;;;;;;5093091;28;20210;-42
2022/01/02 00:30:26;;;;;;;3.87;1.90;;;9.70;99.90;;;;;;5093141;28;20191;-43
2022/01/02 00:32:52;;;;;;;5.13;2.00;;;9.70;99.90;;;;;;5074929;28;20205;-43
2022/01/02 00:35:18;;;;;;;3.43;2.10;;;9.90;99.90;;;;;;5093076;28;20185;-42
2022/01/02 00:37:44;;;;;;;2.83;1.90;;;10.00;99.90;;;;;;5093334;28;20176;-43
2022/01/02 00:40:10;;;;;;;2.57;2.17;;;10.20;99.90;;;;;;5093216;28;20199;-44
2022/01/02 00:42:42;;;;;;;3.33;2.10;;;10.30;99.90;;;;;;5074808;28;20659;-43
2022/01/02 00:45:16;;;;;;;4.37;2.10;;;10.50;99.90;;;;;;5093390;28;20190;-42
2022/01/02 00:48:06;;;;;;;2.57;1.80;;;10.60;99.90;;;;;;5093225;28;20159;-42
2022/01/02 00:50:55;;;;;;;3.90;2.00;;;10.80;99.90;;;;;;5093035;28;20628;-42
2022/01/02 00:53:25;;;;;;;5.47;2.10;;;10.90;99.90;;;;;;5076827;28;20199;-45
2022/01/02 00:55:56;;;;;;;6.10;2.27;;;11.10;99.90;;;;;;5096691;28;20699;-42
2022/01/02 00:58:29;;;;;;;9.23;2.47;;;11.20;99.90;;;;;;5096950;28;20635;-43
2022/01/02 01:00:57;;;;;;;6.33;2.30;;;11.30;99.90;;;;;;5096872;28;20324;-43
2022/01/02 01:03:25;;;;;;;6.90;2.30;;;11.40;99.90;;;;;;5078519;28;20204;-42
2022/01/02 01:05:54;;;;;;;4.53;2.37;;;11.40;99.90;;;;;;5096556;28;20179;-43
2022/01/02 01:08:21;;;;;;;3.83;2.30;;;11.50;99.90;;;;;;5096764;28;20175;-43
2022/01/02 01:10:47;;;;;;;3.97;2.27;;;11.50;99.90;;;;;;5097005;28;20175;-44
2022/01/02 01:13:13;;;;;;;4.63;2.53;;;11.50;99.90;;;;;;5078470;28;20567;-42
2022/01/02 01:15:39;;;;;;;4.17;2.13;;;11.50;99.90;;;;;;5096635;28;20182;-41
2022/01/02 01:18:05;;;;;;;5.30;2.50;;;11.50;99.90;;;;;;5078170;28;20183;-42
2022/01/02 01:20:35;;;;;;;4.53;2.20;;;11.50;99.90;;;;;;5096201;28;20241;-43
2022/01/02 01:23:00;;;;;;;6.63;2.70;;;11.50;99.90;;;;;;5096437;28;20207;-44
2022/01/02 01:25:26;;;;;;;5.90;2.30;;;11.60;99.90;;;;;;5096238;28;20182;-43
2022/01/02 01:27:53;;;;;;;3.73;2.37;;;11.70;99.90;;;;;;5077976;28;20236;-40
2022/01/02 01:30:23;;;;;;;9.27;2.83;;;11.70;99.90;;;;;;5096138;28;20198;-43
2022/01/02 01:32:49;;;;;;;7.83;2.40;;;11.70;99.90;;;;;;5095978;28;20195;-44
2022/01/02 01:35:16;;;;;;;7.43;2.50;;;11.70;99.90;;;;;;5096123;28;20204;-43
2022/01/02 01:37:41;;;;;;;10.03;2.83;;;11.70;99.90;;;;;;5096027;28;20179;-44
2022/01/02 01:40:09;;;;;;;5.53;2.70;;;11.70;99.90;;;;;;5077832;28;20685;-45
2022/01/02 01:42:41;;;;;;;8.70;2.83;;;11.60;99.90;;;;;;5096404;28;20545;-41
2022/01/02 01:47:52;;;;;;;7.20;2.30;;;11.60;99.90;;;;;;5096333;28;20193;-44
2022/01/02 01:50:20;;;;;;;6.63;2.23;;;11.60;99.90;;;;;;5096146;28;20163;-43
2022/01/02 01:52:45;;;;;;;8.07;2.47;;;11.50;99.90;;;;;;5095991;28;20290;-42
2022/01/02 01:55:12;;;;;;;8.33;2.53;;;11.50;99.90;;;;;;5096532;28;20264;-44
2022/01/02 01:57:39;;;;;;;8.33;2.77;;;11.50;99.90;;;;;;5096270;28;20540;-40
2022/01/02 02:00:07;;;;;;;9.20;2.77;;;11.40;99.90;;;;;;5095705;28;20213;-45
2022/01/02 02:02:33;;;;;;;10.03;2.47;;;11.40;99.90;;;;;;5095703;28;20195;-39
2022/01/02 02:04:59;;;;;;;5.63;2.93;;;11.40;99.90;;;;;;5094707;28;20229;-42
2022/01/02 02:07:28;;;;;;;9.30;2.73;;;11.40;99.90;;;;;;5095363;28;20584;-43
2022/01/02 02:12:26;;;;;;;9.97;2.90;;;11.30;99.90;;;;;;5095475;28;20197;-42
2022/01/02 02:14:52;;;;;;;8.63;3.17;;;11.40;99.90;;;;;;5095255;28;20175;-42
2022/01/02 02:17:17;;;;;;;6.77;2.83;;;11.30;99.90;;;;;;5095757;28;20168;-42
2022/01/02 02:19:43;;;;;;;6.70;2.90;;;11.30;99.90;;;;;;5095074;28;20160;-41
2022/01/02 02:22:09;;;;;;;7.53;2.60;;;11.30;99.90;;;;;;5095172;28;20197;-42
2022/01/02 02:24:34;;;;;;;10.07;2.83;;;11.30;99.90;;;;;;5095055;28;20201;-42
2022/01/02 02:27:00;;;;;;;8.33;2.67;;;11.30;99.90;;;;;;5094859;28;20213;-41
2022/01/02 02:29:25;;;;;;;6.93;2.57;;;11.30;99.90;;;;;;5076811;28;20179;-41
2022/01/02 02:31:55;;;;;;;13.13;3.20;;;11.20;99.90;;;;;;5094866;28;20207;-41
2022/01/02 02:34:20;;;;;;;13.83;2.80;;;11.20;99.90;;;;;;5095070;28;20179;-43
2022/01/02 02:36:46;;;;;;;9.33;2.33;;;11.20;99.90;;;;;;5094834;28;20183;-44
2022/01/02 02:39:12;;;;;;;8.77;2.50;;;11.20;99.90;;;;;;5095014;28;20172;-41
2022/01/02 02:41:40;;;;;;;6.00;2.90;;;11.20;99.90;;;;;;5095032;28;20264;-42
2022/01/02 02:44:16;;;;;;;8.83;2.50;;;11.20;99.90;;;;;;5094941;28;20190;-42
2022/01/02 02:49:26;;;;;;;9.03;2.80;;;11.10;99.90;;;;;;5095133;28;20211;-41
2022/01/02 02:51:58;;;;;;;9.33;2.50;;;11.10;99.90;;;;;;5094532;28;20690;-42
2022/01/02 02:54:27;;;;;;;5.53;2.77;;;11.10;99.90;;;;;;5094753;28;20161;-39
2022/01/02 02:59:19;;;;;;;9.10;2.67;;;11.10;99.90;;;;;;5094691;28;20648;-42
2022/01/02 03:01:45;;;;;;;7.87;2.50;;;11.10;99.90;;;;;;5094413;28;20222;-43
2022/01/02 03:04:11;;;;;;;9.10;2.77;;;11.10;99.90;;;;;;5094224;28;20258;-44
2022/01/02 03:06:37;;;;;;;8.10;2.50;;;11.00;99.90;;;;;;5094207;28;20176;-41
2022/01/02 03:09:08;;;;;;;7.07;2.73;;;11.10;99.90;;;;;;5094179;28;20208;-44
2022/01/02 03:11:39;;;;;;;7.83;2.60;;;11.10;99.90;;;;;;5094362;28;20182;-41
2022/01/02 03:14:06;;;;;;;8.40;2.77;;;11.10;99.90;;;;;;5094317;28;20201;-43
2022/01/02 03:16:32;;;;;;;10.03;2.30;;;11.10;99.90;;;;;;5093385;28;20199;-43
2022/01/02 03:18:59;;;;;;;8.50;2.93;;;11.00;99.90;;;;;;5094318;28;20181;-41
2022/01/02 03:21:24;;;;;;;5.97;2.73;;;11.10;99.90;;;;;;5093932;28;20272;-41
2022/01/02 03:23:50;;;;;;;7.40;2.67;;;11.10;99.90;;;;;;5094118;28;20199;-41
2022/01/02 03:26:17;;;;;;;10.27;2.80;;;11.10;99.90;;;;;;5075659;28;20684;-43
2022/01/02 03:28:42;;;;;;;11.53;2.60;;;11.10;99.90;;;;;;5093899;28;20161;-43
2022/01/02 03:31:08;;;;;;;6.63;2.47;;;11.10;99.90;;;;;;5094650;28;20662;-42
2022/01/02 03:33:34;;;;;;;10.03;2.50;;;11.10;99.90;;;;;;5093792;28;20258;-41
2022/01/02 03:36:00;;;;;;;8.73;2.40;;;11.00;99.90;;;;;;5093747;28;20246;-43
2022/01/02 03:38:26;;;;;;;8.57;2.97;;;11.00;99.90;;;;;;5093651;28;20179;-44
2022/01/02 03:40:52;;;;;;;10.37;2.87;;;11.10;99.90;;;;;;5093592;28;20229;-45
2022/01/02 03:43:17;;;;;;;6.80;2.40;;;11.10;99.90;;;;;;5093541;28;20714;-43
2022/01/02 03:45:43;;;;;;;9.23;2.60;;;11.10;99.90;;;;;;5093670;28;20177;-41
2022/01/02 03:48:09;;;;;;;8.20;2.60;;;11.20;99.90;;;;;;5075395;28;20174;-43
2022/01/02 03:50:34;;;;;;;10.60;2.70;;;11.20;99.90;;;;;;5093510;28;20281;-43
2022/01/02 03:53:00;;;;;;;6.43;2.50;;;11.20;99.90;;;;;;5075358;28;20750;-41
2022/01/02 03:55:25;;;;;;;7.33;2.73;;;11.20;99.90;;;;;;5093693;28;20197;-42
2022/01/02 03:57:51;;;;;;;9.43;2.90;;;11.20;99.90;;;;;;5093481;28;20175;-41
2022/01/02 04:00:18;;;;;;;6.47;2.57;;;11.20;99.90;;;;;;5093637;28;20237;-42
2022/01/02 04:02:44;;;;;;;7.80;2.93;;;11.20;99.90;;;;;;5075520;28;20197;-42
2022/01/02 04:05:12;;;;;;;7.67;2.60;;;11.20;99.90;;;;;;5075377;28;20565;-44
2022/01/02 04:07:38;;;;;;;8.20;2.60;;;11.10;99.90;;;;;;5093812;28;20545;-43
2022/01/02 04:10:10;;;;;;;7.50;2.97;;;11.10;99.90;;;;;;5093581;28;20178;-44
2022/01/02 04:12:36;;;;;;;12.10;2.90;;;11.10;99.90;;;;;;5075387;28;20204;-43
2022/01/02 04:15:03;;;;;;;8.07;2.53;;;11.00;99.90;;;;;;5093527;28;20641;-44
2022/01/02 04:17:28;;;;;;;5.77;2.57;;;11.00;99.90;;;;;;5093319;28;20584;-44
2022/01/02 04:19:54;;;;;;;9.00;2.97;;;10.90;99.90;;;;;;5093342;28;20177;-44
2022/01/02 04:22:20;;;;;;;10.43;2.93;;;10.90;99.90;;;;;;5093310;28;20197;-42
2022/01/02 04:24:45;;;;;;;7.23;3.00;;;10.90;99.90;;;;;;5058768;28;20179;-43
2022/01/02 04:27:11;;;;;;;6.43;2.87;;;10.80;99.90;;;;;;5093844;28;20197;-42
2022/01/02 04:29:37;;;;;;;8.90;2.87;;;10.80;99.90;;;;;;5097654;28;20661;-42
2022/01/02 04:32:02;;;;;;;8.77;2.90;;;10.80;99.90;;;;;;5097410;28;20204;-42
2022/01/02 04:34:28;;;;;;;11.40;2.80;;;10.80;99.90;;;;;;5097702;28;20181;-41
2022/01/02 04:36:54;;;;;;;6.50;2.83;;;10.80;99.90;;;;;;5097706;28;20238;-43
2022/01/02 04:39:19;;;;;;;5.87;3.10;;;10.70;99.90;;;;;;5097721;28;20650;-42
2022/01/02 04:41:45;;;;;;;8.17;2.67;;;10.70;99.90;;;;;;5097492;28;20232;-40
2022/01/02 04:44:11;;;;;;;10.30;3.50;;;10.70;99.90;;;;;;5079251;28;20181;-42
2022/01/02 04:46:36;;;;;;;8.37;3.17;;;10.70;99.90;;;;;;5097302;28;20538;-42
2022/01/02 04:49:02;;;;;;;6.73;2.87;;;10.70;99.90;;;;;;5097484;28;20221;-42
2022/01/02 04:51:28;;;;;;;9.60;2.40;;;10.70;99.90;;;;;;5097569;28;20638;-42
2022/01/02 04:53:53;;;;;;;7.47;2.80;;;10.70;99.90;;;;;;5096958;28;20208;-43
2022/01/02 04:56:19;;;;;;;8.43;2.50;;;10.70;99.90;;;;;;5097079;28;20176;-40
2022/01/02 04:58:44;;;;;;;10.30;2.77;;;10.70;99.90;;;;;;5097226;28;20173;-42
2022/01/02 05:01:14;;;;;;;10.03;2.73;;;10.70;99.90;;;;;;5097117;28;20651;-43
2022/01/02 05:03:40;;;;;;;8.63;3.00;;;10.70;99.90;;;;;;5096907;28;20673;-42
2022/01/02 05:06:10;;;;;;;9.80;2.77;;;10.80;99.90;;;;;;5097092;28;20179;-42
2022/01/02 05:08:36;;;;;;;15.97;3.30;;;10.70;99.90;;;;;;5097174;28;20562;-44
2022/01/02 05:11:02;;;;;;;6.93;2.53;;;10.70;99.90;;;;;;5097156;28;20218;-43
2022/01/02 05:13:27;;;;;;;9.33;2.50;;;10.70;99.90;;;;;;5078380;28;20236;-41
2022/01/02 05:15:53;;;;;;;7.37;2.80;;;10.70;99.90;;;;;;5096713;28;20191;-44
2022/01/02 05:18:19;;;;;;;11.27;2.80;;;10.70;99.90;;;;;;5096716;28;20538;-44
2022/01/02 05:20:46;;;;;;;11.33;3.20;;;10.70;99.90;;;;;;5096579;28;20204;-44
2022/01/02 05:23:16;;;;;;;9.10;2.90;;;10.70;99.90;;;;;;5096717;28;20189;-43
2022/01/02 05:25:42;;;;;;;11.87;3.10;;;10.70;99.90;;;;;;5096560;28;20175;-43
2022/01/02 05:28:09;;;;;;;7.50;2.63;;;10.70;99.90;;;;;;5096457;28;20566;-42
2022/01/02 05:30:36;;;;;;;9.37;3.10;;;10.60;99.90;;;;;;5096542;28;20195;-43
2022/01/02 05:33:01;;;;;;;10.73;3.20;;;10.60;99.90;;;;;;5078188;28;20669;-44
2022/01/02 05:35:27;;;;;;;7.50;3.50;;;10.60;99.90;;;;;;5096319;28;20188;-41
2022/01/02 05:37:52;;;;;;;15.40;3.47;;;10.60;99.90;;;;;;5096461;28;20235;-41
2022/01/02 05:40:18;;;;;;;10.83;3.33;;;10.60;99.90;;;;;;5094986;28;20260;-44
2022/01/02 05:42:43;;;;;;;11.80;3.10;;;10.60;99.90;;;;;;5077913;28;20201;-43
2022/01/02 05:45:09;;;;;;;15.90;3.60;;;10.60;99.90;;;;;;5096515;28;20200;-43
2022/01/02 05:47:39;;;;;;;7.40;3.77;;;10.60;99.90;;;;;;5095988;28;20175;-43
2022/01/02 05:50:06;;;;;;;12.43;4.30;;;10.60;99.90;;;;;;5096187;28;20223;-43
2022/01/02 05:52:32;;;;;;;11.87;4.13;;;10.70;99.90;;;;;;5077892;28;20203;-43
2022/01/02 05:54:58;;;;;;;14.53;5.17;;;10.70;99.90;;;;;;5077716;28;20182;-43
2022/01/02 05:57:24;;;;;;;11.60;7.00;;;10.70;99.90;;;;;;5096187;28;20632;-43
2022/01/02 05:59:49;;;;;;;15.73;6.23;;;10.70;99.90;;;;;;5077653;28;20185;-42
2022/01/02 06:02:15;;;;;;;12.20;4.33;;;10.60;99.90;;;;;;5095847;28;20200;-40
2022/01/02 06:04:40;;;;;;;9.27;4.50;;;10.60;99.90;;;;;;5096063;28;20695;-42
2022/01/02 06:07:06;;;;;;;6.77;4.20;;;10.60;99.90;;;;;;5095990;28;20181;-41
2022/01/02 06:09:32;;;;;;;11.70;4.43;;;10.50;99.90;;;;;;5095597;28;20173;-44
2022/01/02 06:11:58;;;;;;;10.90;3.63;;;10.50;99.90;;;;;;5095899;28;20249;-41
2022/01/02 06:14:23;;;;;;;12.90;3.90;;;10.50;99.90;;;;;;5095489;28;20173;-44
2022/01/02 06:16:50;;;;;;;12.93;3.57;;;10.50;99.90;;;;;;5095837;28;20524;-43
2022/01/02 06:19:15;;;;;;;9.77;3.77;;;10.50;99.90;;;;;;5095532;28;20705;-41
2022/01/02 06:21:41;;;;;;;10.27;4.00;;;10.50;99.90;;;;;;5095230;28;20208;-42
2022/01/02 06:24:06;;;;;;;9.73;3.73;;;10.50;99.90;;;;;;5095368;28;20185;-44
2022/01/02 06:26:32;;;;;;;10.03;3.77;;;10.50;99.90;;;;;;5095561;28;20196;-42
2022/01/02 06:29:02;;;;;;;11.27;3.83;;;10.50;99.90;;;;;;5077083;28;20263;-44
2022/01/02 06:31:29;;;;;;;7.50;3.90;;;10.40;99.90;;;;;;5061263;28;20212;-41
2022/01/02 06:33:54;;;;;;;10.17;3.77;;;10.40;99.90;;;;;;5095258;28;20202;-41
2022/01/02 06:36:20;;;;;;;11.90;4.00;;;10.40;99.90;;;;;;5095171;28;20172;-41
2022/01/02 06:38:45;;;;;;;6.47;3.63;;;10.40;99.90;;;;;;5095423;28;20181;-41
2022/01/02 06:41:12;;;;;;;9.97;3.90;;;10.30;99.90;;;;;;5094890;28;20205;-42
2022/01/02 06:43:39;;;;;;;9.50;3.83;;;10.30;99.90;;;;;;5095247;28;20195;-41
2022/01/02 06:46:06;;;;;;;10.13;3.33;;;10.30;99.90;;;;;;5095519;28;20175;-43
2022/01/02 06:48:31;;;;;;;13.10;4.40;;;10.30;99.90;;;;;;5095215;28;20693;-44
2022/01/02 06:50:57;;;;;;;13.03;4.30;;;10.40;99.90;;;;;;5094945;28;20181;-44
2022/01/02 06:53:22;;;;;;;10.33;4.47;;;10.30;99.90;;;;;;5095522;28;20670;-42
2022/01/02 06:55:48;;;;;;;15.37;4.60;;;10.30;99.90;;;;;;5095067;28;20181;-40
2022/01/02 06:58:14;;;;;;;16.27;4.60;;;10.30;99.90;;;;;;5095084;28;20186;-43
2022/01/02 07:00:44;;;;;;;7.30;4.37;;;10.30;99.90;;;;;;5076463;28;20212;-44
2022/01/02 07:03:09;;;;;;;12.13;4.20;;;10.30;99.90;;;;;;5094538;28;20193;-42
2022/01/02 07:05:35;;;;;;;9.77;4.27;;;10.30;99.90;;;;;;5094701;28;20635;-41
2022/01/02 07:08:01;;;;;;;14.13;4.40;;;10.30;99.90;;;;;;5094845;28;20184;-41
2022/01/02 07:10:26;;;;;;;9.27;3.90;;;10.20;99.90;;;;;;5094724;28;20571;-42
2022/01/02 07:12:52;;;;;;;9.53;3.50;;;10.20;99.90;;;;;;5094713;28;20201;-42
2022/01/02 07:15:18;;;;;;;9.93;3.43;;;10.20;99.90;;;;;;5076093;28;20706;-44
2022/01/02 07:17:43;;;;;;;6.93;3.60;;;10.30;99.90;;;;;;5094451;28;20654;-44
2022/01/02 07:20:10;;;;;;;8.97;4.23;;;10.30;99.90;;;;;;5094203;28;20175;-41
2022/01/02 07:22:36;;;;;;;8.17;4.57;;;10.40;99.90;;;;;;5094330;28;20197;-42
2022/01/02 07:25:03;;;;;;;10.23;4.27;;;10.40;99.90;;;;;;5094268;28;20590;-42
2022/01/02 07:27:29;;;;;;;9.47;4.33;;;10.40;99.90;;;;;;5093933;28;20204;-43
2022/01/02 07:29:56;;;;;;;9.60;4.03;;;10.40;99.90;;;;;;5075888;28;20170;-44
2022/01/02 07:32:22;;;;;;;6.87;3.53;;;10.40;99.90;;;;;;5094190;28;20196;-41
2022/01/02 07:34:48;;;;;;;14.20;4.33;;;10.50;99.90;;;;;;5094024;28;20185;-42
2022/01/02 07:37:14;;;;;;;6.87;3.40;;;10.50;99.90;;;;;;5094303;28;20624;-41
2022/01/02 07:39:40;;;;;;;7.20;3.40;;;10.60;99.90;;;;;;5094123;28;20627;-42
2022/01/02 07:42:06;;;;;;;8.27;3.40;;;10.60;99.90;;;;;;5094296;28;20203;-41
2022/01/02 07:44:32;;;;;;;6.20;3.60;;;10.60;99.90;;;;;;5094036;28;20171;-42
2022/01/02 07:46:58;;;;;;;7.17;3.60;;;10.70;99.90;;;;;;5075747;28;20629;-42
2022/01/02 07:49:24;;;;;;;5.57;3.30;;;10.70;99.90;;;;;;5093824;28;20179;-40
2022/01/02 07:51:50;;;;;;;9.87;3.40;;;10.70;99.90;;;;;;5093886;28;20189;-42
2022/01/02 07:54:15;;;;;;;7.23;3.23;;;10.70;99.90;;;;;;5075682;28;20179;-45
2022/01/02 07:56:42;;;;;;;5.93;3.00;;;10.70;99.90;;;;;;5093957;28;20239;-44
2022/01/02 07:59:08;;;;;;;5.80;3.37;;;10.70;99.90;;;;;;5093756;28;20180;-42
2022/01/02 08:01:34;;;;;;;5.10;2.40;;;10.70;99.90;;;;;;5094214;28;20583;-43
2022/01/02 08:03:59;;;;;;;5.57;2.40;;;10.70;99.90;;;;;;5093554;28;20240;-44
2022/01/02 08:06:25;;;;;;;5.77;2.10;;;10.70;99.90;;;;;;5093404;28;20216;-42
2022/01/02 08:08:51;;;;;;;5.10;2.40;;;10.70;99.90;;;;;;5093681;28;20211;-42
2022/01/02 08:11:17;;;;;;;6.57;2.27;;;10.70;99.90;;;;;;5093615;28;20190;-41
2022/01/02 08:13:46;;;;;;;3.53;2.13;;;10.70;99.90;;;;;;5093459;28;20288;-43
2022/01/02 08:16:13;;;;;;;3.30;2.03;;;10.70;99.90;;;;;;5093588;28;20191;-42
2022/01/02 08:18:39;;;;;;;4.03;1.87;;;10.70;99.90;;;;;;5075456;28;20179;-43
2022/01/02 08:21:06;;;;;;;2.57;2.10;;;10.70;99.90;;;;;;5093357;28;20275;-45
2022/01/02 08:23:31;;;;;;;3.30;1.73;;;10.80;99.90;;;;;;5094497;28;20196;-43
2022/01/02 08:25:57;;;;;;;3.80;2.07;;;10.70;99.90;;;;;;5093402;28;20193;-44
2022/01/02 08:28:23;;;;;;;2.90;1.90;;;10.80;99.90;;;;;;5093781;28;20198;-45
2022/01/02 08:30:49;;;;;;;4.23;2.23;;;10.90;99.90;;;;;;5093445;28;20666;-44
2022/01/02 08:33:15;;;;;;;5.60;1.93;;;10.80;99.90;;;;;;5058486;28;20674;-44
2022/01/02 08:35:42;;;;;;;3.63;2.03;;;10.90;99.90;;;;;;5093338;28;20176;-44
2022/01/02 08:38:07;;;;;;;2.93;2.03;;;10.90;99.90;;;;;;5075208;28;20322;-44
2022/01/02 08:40:36;;;;;;;5.83;2.10;;;11.00;99.90;;;;;;5093486;28;20613;-43
2022/01/02 08:43:01;;;;;;;3.93;2.10;;;11.00;99.90;;;;;;5093009;28;20584;-42
2022/01/02 08:45:27;;;;;;;3.27;2.27;;;11.10;99.90;;;;;;5075012;28;20186;-45
2022/01/02 08:47:53;;;;;;;6.17;2.97;;;11.10;99.90;;;;;;5093093;28;20181;-42
2022/01/02 08:50:18;;;;;;;3.57;2.60;;;11.00;99.90;;;;;;5076059;28;20179;-41
2022/01/02 08:52:44;;;;;;;3.30;2.60;;;11.10;99.90;;;;;;5092978;28;20561;-43
2022/01/02 08:55:10;;;;;;;3.17;2.60;;;11.10;99.90;;;;;;5093073;28;20190;-43
2022/01/02 08:57:36;;;;;;;4.10;3.00;;;11.00;99.90;;;;;;5093240;28;20205;-42
2022/01/02 09:00:02;;;;;;;7.50;2.97;;;11.00;99.90;;;;;;5093236;28;20206;-43
2022/01/02 09:02:28;;;;;;;4.87;3.33;;;11.00;99.90;;;;;;5093028;28;20272;-43
2022/01/02 09:04:54;;;;;;;4.13;2.40;;;11.00;99.90;;;;;;5093389;28;20674;-40
2022/01/02 09:07:19;;;;;;;5.50;2.03;;;11.00;99.90;;;;;;5092957;28;20220;-43
2022/01/02 09:09:45;;;;;;;3.33;2.00;;;11.10;99.90;;;;;;5092912;28;20511;-42
2022/01/02 09:12:12;;;;;;;2.30;1.70;;;11.20;99.90;;;;;;5074974;28;20694;-44
2022/01/02 09:14:38;;;;;;;2.40;1.80;;;11.40;99.90;;;;;;5095279;28;20174;-44
2022/01/02 09:17:04;;;;;;;4.43;1.80;;;11.60;99.90;;;;;;5096935;28;20183;-44
2022/01/02 09:19:29;;;;;;;3.23;2.00;;;11.90;99.90;;;;;;5096831;28;20241;-42
2022/01/02 09:21:55;;;;;;;5.77;1.73;;;12.20;99.90;;;;;;5096612;28;20264;-42
2022/01/02 09:24:21;;;;;;;7.33;2.00;;;12.50;99.90;;;;;;5078385;28;20264;-41
2022/01/02 09:26:47;;;;;;;3.43;1.70;;;12.70;99.90;;;;;;5096698;28;20244;-41
2022/01/02 09:29:12;;;;;;;4.00;2.43;;;12.70;99.90;;;;;;5096202;28;20705;-40
2022/01/02 09:31:39;;;;;;;4.10;1.47;;;12.80;99.90;;;;;;5096629;28;20175;-41
2022/01/02 09:34:05;;;;;;;5.50;2.53;;;12.80;99.90;;;;;;5096991;28;20242;-42
2022/01/02 09:36:31;;;;;;;6.97;2.43;;;12.80;99.90;;;;;;5096477;28;20173;-41
2022/01/02 09:38:57;;;;;;;5.43;2.13;;;12.90;99.90;;;;;;5096633;28;20245;-42
2022/01/02 09:41:23;;;;;;;4.23;2.40;;;12.90;99.90;;;;;;5096587;28;20619;-42
2022/01/02 09:43:50;;;;;;;5.33;2.60;;;12.90;99.90;;;;;;5078001;28;20287;-42
2022/01/02 09:46:24;;;;;;;5.53;2.20;;;12.90;99.90;;;;;;5078233;28;20215;-43
2022/01/02 09:48:53;;;;;;;4.77;2.40;;;12.90;99.90;;;;;;5096315;28;20169;-40
2022/01/02 09:51:22;;;;;;;2.27;1.70;;;12.90;99.90;;;;;;5095887;28;20156;-42
2022/01/02 09:53:48;;;;;;;4.97;2.27;;;13.00;99.90;;;;;;5095828;28;20192;-43
2022/01/02 09:56:14;;;;;;;3.13;2.07;;;12.80;99.90;;;;;;5077561;28;20195;-41
2022/01/02 09:58:42;;;;;;;6.87;2.03;;;12.80;99.90;;;;;;5095888;28;20192;-43
2022/01/02 10:01:17;;;;;;;3.70;2.07;;;12.80;99.90;;;;;;5096477;28;20217;-44
2022/01/02 10:03:51;;;;;;;7.20;2.60;;;12.80;99.90;;;;;;5095785;28;20282;-43
2022/01/02 10:06:18;;;;;;;5.87;2.30;;;12.80;99.90;;;;;;5095503;28;20170;-44
2022/01/02 10:08:44;;;;;;;1.47;1.37;;;12.90;99.90;;;;;;5095794;28;20172;-42
2022/01/02 10:11:23;;;;;;;4.87;2.77;;;12.90;99.90;;;;;;5095374;28;20174;-42
2022/01/02 10:13:51;;;;;;;3.13;2.23;;;12.90;99.90;;;;;;5095184;28;20519;-44
2022/01/02 10:16:33;;;;;;;10.63;3.30;;;13.00;99.90;;;;;;5095339;28;20539;-44
2022/01/02 10:19:26;;;;;;;6.23;2.83;;;13.00;99.90;;;;;;5095550;28;20170;-43
2022/01/02 10:22:10;;;;;;;3.43;2.50;;;13.10;99.90;;;;;;5087355;28;20713;-41
2022/01/02 10:24:40;;;;;;;6.03;2.60;;;13.20;99.90;;;;;;5077027;28;20173;-43
2022/01/02 10:27:07;;;;;;;4.67;2.73;;;13.20;99.90;;;;;;5076349;28;20251;-43
2022/01/02 10:29:42;;;;;;;3.43;2.57;;;13.30;99.90;;;;;;5095187;28;20586;-43
2022/01/02 10:32:32;;;;;;;6.37;2.80;;;13.30;99.90;;;;;;5095056;28;20205;-43
2022/01/02 10:35:13;;;;;;;4.07;2.13;;;13.20;99.90;;;;;;5095127;28;20174;-44
2022/01/02 10:37:42;;;;;;;7.03;3.60;;;13.20;99.90;;;;;;5095141;28;20174;-45
2022/01/02 10:40:30;;;;;;;4.90;2.20;;;13.20;99.90;;;;;;5095314;28;20614;-43
2022/01/02 10:42:57;;;;;;;7.13;3.07;;;13.10;99.90;;;;;;5094997;28;20203;-41
2022/01/02 10:45:40;;;;;;;5.60;3.23;;;13.10;99.90;;;;;;5094854;28;20228;-42
2022/01/02 10:48:10;;;;;;;6.77;3.83;;;13.10;99.90;;;;;;5094994;28;20572;-43
2022/01/02 10:50:37;;;;;;;5.03;2.67;;;13.10;99.90;;;;;;5094726;28;20166;-44
2022/01/02 10:53:17;;;;;;;5.50;3.07;;;13.10;99.90;;;;;;5094471;28;20202;-43
2022/01/02 10:55:45;;;;;;;14.67;8.70;;;13.10;99.90;;;;;;5094836;28;20623;-43
2022/01/02 10:58:12;;;;;;;14.33;5.47;;;13.10;99.90;;;;;;5076221;28;20668;-43
2022/01/02 11:00:38;;;;;;;6.00;3.43;;;13.10;99.90;;;;;;5076178;28;20207;-43
2022/01/02 11:03:05;;;;;;;13.37;8.07;;;13.20;99.90;;;;;;5094386;28;20314;-42
2022/01/02 11:05:33;;;;;;;5.40;3.40;;;13.20;99.90;;;;;;5094615;28;20649;-44
2022/01/02 11:08:00;;;;;;;6.07;3.57;;;13.20;99.90;;;;;;5094606;28;20175;-42
2022/01/02 11:10:31;;;;;;;10.57;6.30;;;13.20;99.90;;;;;;5094464;28;20185;-45
2022/01/02 11:12:57;;;;;;;8.03;4.10;;;13.20;99.90;;;;;;5075980;28;20214;-44
2022/01/02 11:15:25;;;;;;;11.17;5.60;;;13.20;99.90;;;;;;5094165;28;20253;-44
2022/01/02 11:17:52;;;;;;;7.57;4.07;;;13.10;99.90;;;;;;5094353;28;20545;-44
2022/01/02 11:20:27;;;;;;;10.47;5.47;;;13.10;99.90;;;;;;5094037;28;20261;-44
2022/01/02 11:23:14;;;;;;;7.03;4.60;;;13.10;99.90;;;;;;5093939;28;20779;-44
2022/01/02 11:25:50;;;;;;;7.57;4.33;;;13.00;99.90;;;;;;5094227;28;20151;-44
2022/01/02 11:28:24;;;;;;;9.77;3.57;;;13.00;99.90;;;;;;5094114;28;20166;-45
2022/01/02 11:30:50;;;;;;;9.33;4.13;;;13.10;99.90;;;;;;5094135;28;20170;-43
2022/01/02 11:33:25;;;;;;;7.53;4.10;;;13.10;99.90;;;;;;5094556;28;20202;-42
2022/01/02 11:35:51;;;;;;;4.73;3.13;;;13.10;99.90;;;;;;5094067;28;20208;-44
2022/01/02 11:38:19;;;;;;;9.03;3.70;;;13.10;99.90;;;;;;5092848;28;20175;-42
2022/01/02 11:40:47;;;;;;;6.47;3.57;;;13.10;99.90;;;;;;5075513;28;20565;-43
2022/01/02 11:43:49;;;;;;;9.63;3.80;;;13.00;99.90;;;;;;5093582;28;20199;-45
2022/01/02 11:46:19;;;;;;;7.63;3.63;;;13.00;99.90;;;;;;5093901;28;20249;-46
2022/01/02 11:49:05;;;;;;;8.17;3.10;;;13.00;99.90;;;;;;5093911;28;20175;-45
2022/01/02 11:51:55;;;;;;;12.43;3.53;;;13.00;99.90;;;;;;5079427;28;20187;-45
2022/01/02 11:54:30;;;;;;;4.23;2.80;;;13.00;99.90;;;;;;5093962;28;20175;-46
2022/01/02 11:57:00;;;;;;;7.00;3.40;;;12.90;99.90;;;;;;5075269;28;20182;-45
2022/01/02 11:59:47;;;;;;;6.83;4.43;;;12.90;99.90;;;;;;5075290;28;20183;-44
2022/01/02 12:02:18;;;;;;;8.43;3.83;;;12.90;99.90;;;;;;5093935;28;20210;-48
2022/01/02 12:04:59;;;;;;;7.30;3.80;;;12.90;99.90;;;;;;5093381;28;20248;-48
2022/01/02 12:07:53;;;;;;;8.87;3.27;;;12.90;99.90;;;;;;5093414;28;20171;-49
2022/01/02 12:10:24;;;;;;;9.83;3.77;;;12.90;99.90;;;;;;5091110;28;20198;-48
2022/01/02 12:13:10;;;;;;;7.57;4.20;;;12.90;99.90;;;;;;5093508;28;20186;-47
2022/01/02 12:15:39;;;;;;;10.33;4.30;;;12.90;99.90;;;;;;5093347;28;20178;-49
2022/01/02 12:18:10;;;;;;;11.77;6.27;;;12.90;99.90;;;;;;5093513;28;20182;-49
2022/01/02 12:20:56;;;;;;;8.67;4.87;;;12.90;99.90;;;;;;5093372;28;20298;-49
2022/01/02 12:23:30;;;;;;;7.17;3.63;;;13.00;99.90;;;;;;5093416;28;20198;-47
2022/01/02 12:26:10;;;;;;;5.67;2.87;;;13.00;99.90;;;;;;5074944;28;20548;-49
2022/01/02 12:28:40;;;;;;;5.53;2.40;;;13.00;99.90;;;;;;5093446;28;20173;-50
2022/01/02 12:31:08;;;;;;;7.60;4.27;;;13.00;99.90;;;;;;5093358;28;20175;-48
2022/01/02 12:33:36;;;;;;;5.10;2.83;;;13.00;99.90;;;;;;5093142;28;20195;-50
2022/01/02 12:36:13;;;;;;;6.47;3.17;;;13.00;99.90;;;;;;5093395;28;20168;-48
2022/01/02 12:38:48;;;;;;;8.07;3.20;;;13.00;99.90;;;;;;5093082;28;20699;-50
2022/01/02 12:41:16;;;;;;;5.00;2.17;;;13.00;99.90;;;;;;5074969;28;20202;-47
2022/01/02 12:43:56;;;;;;;5.90;2.63;;;12.90;99.90;;;;;;5093043;28;20222;-47
2022/01/02 12:46:39;;;;;;;11.43;3.17;;;12.90;99.90;;;;;;5093296;28;20186;-48
2022/01/02 12:49:11;;;;;;;8.60;3.27;;;12.90;99.90;;;;;;5095348;28;20151;-48
2022/01/02 12:51:39;;;;;;;9.37;3.27;;;13.00;99.90;;;;;;5097137;28;20183;-47
2022/01/02 12:54:08;;;;;;;2.93;1.83;;;12.90;99.90;;;;;;5096874;28;20186;-49
2022/01/02 12:56:42;;;;;;;4.23;2.07;;;12.90;99.90;;;;;;5096870;28;20175;-49
2022/01/02 12:59:29;;;;;;;4.93;2.83;;;12.90;99.90;;;;;;5096710;28;20209;-49
2022/01/02 13:02:10;;;;;;;4.77;2.43;;;12.90;99.90;;;;;;5097243;28;20345;-50